Terminal Aerodrome Forecast
Issued by NWS

Home | Current Version | Previous Version | Text Only | Print | Product List | Glossary On
Versions: 1 2 3 4 5 6 7 8 9 10 11 12 13 14 15
000
FTUS42 KMLB 181100 RRA
TAFSFB
TAF
KSFB 181141Z 1812/1912 30003KT P6SM FEW020
     FM181400 34004KT P6SM FEW030
     FM181700 04007KT P6SM SCT030 SCT120
     FM182100 09007KT P6SM SCT035 BKN120
     FM190200 VRB03KT P6SM FEW030 BKN250=

USA.gov is the U.S. government's official web portal to all federal, state and local government web resources and services.